createdAt,value
2022-11-06T00:00:33.727Z,78.34472656
2022-11-06T00:01:34.572Z,78.34472656
2022-11-06T00:02:35.323Z,78.34472656
2022-11-06T00:03:36.007Z,78.2409668
2022-11-06T00:04:36.654Z,78.34472656
2022-11-06T00:05:37.321Z,78.48510742
2022-11-06T00:06:38.515Z,78.44848633
2022-11-06T00:08:10.447Z,78.2409668
2022-11-06T00:09:10.800Z,78.2409668
2022-11-06T00:10:11.998Z,78.44848633
2022-11-06T00:11:12.662Z,78.34472656
2022-11-06T00:12:13.389Z,78.34472656
2022-11-06T00:13:14.015Z,78.44848633
2022-11-06T00:14:14.676Z,78.44848633
2022-11-06T00:15:15.260Z,78.58886719
2022-11-06T00:16:15.983Z,78.58886719
2022-11-06T00:17:16.640Z,78.44848633
2022-11-06T00:18:17.349Z,77.93579102
2022-11-06T00:19:18.900Z,77.21557617
2022-11-06T00:20:19.535Z,76.94091797
2022-11-06T00:21:20.897Z,77.21557617
2022-11-06T00:22:21.459Z,77.52075195
2022-11-06T00:23:22.195Z,77.31323242
2022-11-06T00:24:22.815Z,77.21557617
2022-11-06T00:25:23.469Z,77.21557617
2022-11-06T00:26:25.021Z,77.21557617
2022-11-06T00:27:25.605Z,77.41699219
2022-11-06T00:28:26.243Z,77.62451172
2022-11-06T00:29:27.892Z,77.97241211
2022-11-06T00:30:28.513Z,78.07617188
2022-11-06T00:31:29.231Z,78.07617188
2022-11-06T00:32:29.862Z,77.97241211
2022-11-06T00:33:30.474Z,77.76489258
2022-11-06T00:34:31.130Z,77.34985352
2022-11-06T00:35:31.627Z,77.04467773
2022-11-06T00:36:32.273Z,76.94091797
2022-11-06T00:37:32.814Z,76.8371582
2022-11-06T00:38:33.407Z,76.94091797
2022-11-06T00:39:34.049Z,77.24609375
2022-11-06T00:40:35.333Z,77.34985352
2022-11-06T00:41:35.944Z,76.94091797
2022-11-06T00:42:36.490Z,76.8371582
2022-11-06T00:43:37.087Z,76.73339844
2022-11-06T00:44:38.277Z,76.73339844
2022-11-06T00:46:09.234Z,76.8371582
2022-11-06T00:47:09.869Z,77.1484375
2022-11-06T00:48:10.814Z,77.34985352
2022-11-06T00:49:11.776Z,77.24609375
2022-11-06T00:50:12.419Z,77.34985352
2022-11-06T00:51:13.047Z,77.45361328
2022-11-06T00:52:13.733Z,77.34985352
2022-11-06T00:53:15.240Z,77.45361328
2022-11-06T00:54:15.951Z,77.66113281
2022-11-06T00:55:16.741Z,77.76489258
2022-11-06T00:56:17.398Z,77.55737305
2022-11-06T00:57:18.144Z,77.55737305
2022-11-06T00:58:18.753Z,77.34985352
2022-11-06T00:59:20.323Z,77.45361328
2022-11-06T01:00:21.059Z,77.34985352
2022-11-06T01:01:21.758Z,77.55737305
2022-11-06T01:02:22.452Z,77.55737305
2022-11-06T01:03:23.023Z,77.66113281
2022-11-06T01:04:23.746Z,77.97241211
2022-11-06T01:05:24.446Z,78.07617188
2022-11-06T01:06:25.132Z,78.07617188
2022-11-06T01:07:25.763Z,78.17993164
2022-11-06T01:08:26.418Z,78.27758789
2022-11-06T01:09:27.923Z,78.48510742
2022-11-06T01:10:28.533Z,78.69262695
2022-11-06T01:11:37.505Z,78.90014648
2022-11-06T01:12:30.242Z,78.90014648
2022-11-06T01:13:30.905Z,78.90014648
2022-11-06T01:14:32.422Z,78.90014648
2022-11-06T01:15:33.048Z,79.10766602
2022-11-06T01:16:33.613Z,79.10766602
2022-11-06T01:17:34.261Z,79.10766602
2022-11-06T01:18:34.897Z,79.21142578
2022-11-06T01:19:36.312Z,79.14428711
2022-11-06T01:20:36.928Z,79.14428711
2022-11-06T01:22:08.273Z,79.14428711
2022-11-06T01:23:08.983Z,79.34570313
2022-11-06T01:24:09.677Z,79.34570313
2022-11-06T01:25:10.295Z,79.44946289
2022-11-06T01:26:10.994Z,79.30908203
2022-11-06T01:27:27.780Z,79.30908203
2022-11-06T01:28:13.132Z,79.10766602
2022-11-06T01:29:14.489Z,78.90014648
2022-11-06T01:30:15.091Z,78.58886719
2022-11-06T01:31:15.746Z,78.58886719
2022-11-06T01:32:16.328Z,78.69262695
2022-11-06T01:33:16.977Z,79.14428711
2022-11-06T01:34:17.923Z,79.55322266
2022-11-06T01:35:18.554Z,79.55322266
2022-11-06T01:36:19.159Z,79.44946289
2022-11-06T01:37:19.752Z,79.44946289
2022-11-06T01:38:20.768Z,79.65698242
2022-11-06T01:39:22.026Z,79.76074219
2022-11-06T01:40:22.697Z,79.96826172
2022-11-06T01:41:23.318Z,80.27954102
2022-11-06T01:42:23.989Z,80.37719727
2022-11-06T01:43:24.667Z,80.5847168
2022-11-06T01:44:25.507Z,80.5847168
2022-11-06T01:45:26.122Z,80.68847656
2022-11-06T01:46:26.827Z,80.68847656
2022-11-06T01:47:27.450Z,80.79223633
2022-11-06T01:48:28.021Z,80.68847656
2022-11-06T01:49:29.522Z,80.48095703
2022-11-06T01:50:30.151Z,80.27954102
2022-11-06T01:51:30.805Z,80.17578125
2022-11-06T01:52:31.426Z,80.07202148
2022-11-06T01:53:32.065Z,80.03540039
2022-11-06T01:54:32.786Z,79.82788086
2022-11-06T01:55:33.354Z,79.4128418
2022-11-06T01:56:34.550Z,79.21142578
2022-11-06T01:57:35.121Z,79.21142578
2022-11-06T01:58:35.705Z,79.21142578
2022-11-06T01:59:36.987Z,79.65698242
2022-11-06T02:01:07.903Z,79.86450195
2022-11-06T02:02:08.594Z,79.76074219
2022-11-06T02:03:09.214Z,79.76074219
2022-11-06T02:04:09.735Z,80.07202148
2022-11-06T02:05:10.320Z,80.27954102
2022-11-06T02:06:10.891Z,80.37719727
2022-11-06T02:07:11.505Z,80.62133789
2022-11-06T02:08:12.428Z,80.48095703
2022-11-06T02:09:13.482Z,80.72509766
2022-11-06T02:10:14.095Z,80.72509766
2022-11-06T02:11:15.513Z,80.5847168
2022-11-06T02:12:16.114Z,80.48095703
2022-11-06T02:13:16.764Z,80.48095703
2022-11-06T02:14:17.363Z,80.27954102
2022-11-06T02:15:17.978Z,80.17578125
2022-11-06T02:16:18.748Z,80.17578125
2022-11-06T02:17:19.351Z,80.17578125
2022-11-06T02:18:19.990Z,80.17578125
2022-11-06T02:19:21.548Z,80.17578125
2022-11-06T02:20:22.177Z,80.07202148
2022-11-06T02:21:22.814Z,79.96826172
2022-11-06T02:22:23.449Z,79.96826172
2022-11-06T02:23:24.042Z,79.96826172
2022-11-06T02:24:24.674Z,79.55322266
2022-11-06T02:25:25.344Z,79.24804688
2022-11-06T02:26:26.044Z,79.04052734
2022-11-06T02:27:26.656Z,78.93676758
2022-11-06T02:28:27.225Z,78.83300781
2022-11-06T02:29:28.545Z,78.62548828
2022-11-06T02:30:29.137Z,78.41796875
2022-11-06T02:31:29.724Z,78.41796875
2022-11-06T02:32:30.353Z,78.21044922
2022-11-06T02:33:31.042Z,78.0090332
2022-11-06T02:34:31.744Z,77.59399414
2022-11-06T02:35:32.364Z,77.38647461
2022-11-06T02:36:33.088Z,77.49023438
2022-11-06T02:37:33.743Z,77.69775391
2022-11-06T02:38:34.306Z,77.80151367
2022-11-06T02:39:35.527Z,77.80151367
2022-11-06T02:40:36.242Z,77.69775391
2022-11-06T02:42:07.320Z,77.80151367
2022-11-06T02:43:08.039Z,77.69775391
2022-11-06T02:44:08.706Z,77.55737305
2022-11-06T02:45:09.341Z,77.34985352
2022-11-06T02:46:10.062Z,77.49023438
2022-11-06T02:47:10.656Z,77.80151367
2022-11-06T02:48:11.673Z,78.0090332
2022-11-06T02:49:11.845Z,78.21044922
2022-11-06T02:50:13.284Z,78.21044922
2022-11-06T02:51:13.967Z,78.31420898
2022-11-06T02:52:14.555Z,78.52172852
2022-11-06T02:53:15.205Z,78.83300781
2022-11-06T02:54:15.881Z,78.83300781
2022-11-06T02:55:16.526Z,78.52172852
2022-11-06T02:56:17.333Z,78.72924805
2022-11-06T02:57:18.799Z,78.83300781
2022-11-06T02:58:19.537Z,79.14428711
2022-11-06T02:59:20.109Z,79.24804688
2022-11-06T03:00:21.239Z,79.24804688
2022-11-06T03:01:22.009Z,79.14428711
2022-11-06T03:02:22.731Z,79.34570313
2022-11-06T03:03:23.208Z,79.24804688
2022-11-06T03:04:23.887Z,79.58984375
2022-11-06T03:05:24.471Z,79.79736328
2022-11-06T03:06:25.206Z,79.86450195
2022-11-06T03:07:25.802Z,79.65698242
2022-11-06T03:08:26.388Z,79.55322266
2022-11-06T03:09:26.973Z,79.34570313
2022-11-06T03:10:28.332Z,79.14428711
2022-11-06T03:11:29.010Z,79.14428711
2022-11-06T03:12:29.610Z,79.14428711
2022-11-06T03:13:30.329Z,79.14428711
2022-11-06T03:14:30.942Z,79.34570313
2022-11-06T03:15:31.563Z,79.44946289
2022-11-06T03:16:32.222Z,79.55322266
2022-11-06T03:17:32.864Z,79.48608398
2022-11-06T03:18:33.430Z,79.69360352
2022-11-06T03:19:34.023Z,79.90112305
2022-11-06T03:20:35.252Z,80.10864258
2022-11-06T03:21:36.263Z,79.96826172
2022-11-06T03:23:07.215Z,79.86450195
2022-11-06T03:24:07.885Z,79.76074219
2022-11-06T03:25:08.434Z,80.00488281
2022-11-06T03:26:09.080Z,79.96826172
2022-11-06T03:27:10.512Z,80.27954102
2022-11-06T03:28:11.561Z,80.17578125
2022-11-06T03:29:11.898Z,80.17578125
2022-11-06T03:30:16.486Z,80.10864258
2022-11-06T03:31:14.240Z,80.27954102
2022-11-06T03:32:14.924Z,80.27954102
2022-11-06T03:33:15.589Z,80.27954102
2022-11-06T03:34:16.268Z,80.41992188
2022-11-06T03:35:16.896Z,80.27954102
2022-11-06T03:36:17.505Z,79.76074219
2022-11-06T03:37:18.187Z,79.65698242
2022-11-06T03:38:18.799Z,79.86450195
2022-11-06T03:39:20.039Z,80.00488281
2022-11-06T03:40:21.520Z,80.10864258
2022-11-06T03:41:22.251Z,80.21240234
2022-11-06T03:42:22.931Z,79.96826172
2022-11-06T03:43:23.564Z,80.00488281
2022-11-06T03:44:24.321Z,80.07202148
2022-11-06T03:45:24.918Z,79.65698242
2022-11-06T03:46:25.537Z,79.76074219
2022-11-06T03:47:26.222Z,79.76074219
2022-11-06T03:48:26.869Z,79.79736328
2022-11-06T03:49:27.502Z,79.69360352
2022-11-06T03:50:29.033Z,79.79736328
2022-11-06T03:51:29.644Z,79.79736328
2022-11-06T03:52:30.276Z,79.79736328
2022-11-06T03:53:30.884Z,79.79736328
2022-11-06T03:54:31.544Z,79.69360352
2022-11-06T03:55:32.174Z,79.58984375
2022-11-06T03:56:32.745Z,79.48608398
2022-11-06T03:57:33.337Z,79.58984375
2022-11-06T03:58:34.030Z,79.79736328
2022-11-06T03:59:34.570Z,80.00488281
2022-11-06T04:01:06.216Z,80.00488281
2022-11-06T04:02:06.892Z,80.00488281
2022-11-06T04:03:07.470Z,79.90112305
2022-11-06T04:04:08.013Z,80.00488281
2022-11-06T04:05:08.756Z,80.10864258
2022-11-06T04:06:10.320Z,80.41992188
2022-11-06T04:07:11.020Z,80.51757813
2022-11-06T04:08:12.028Z,80.62133789
2022-11-06T04:09:12.280Z,80.65795898
2022-11-06T04:10:13.547Z,80.76171875
2022-11-06T04:11:14.152Z,80.76171875
2022-11-06T04:12:14.730Z,80.96923828
2022-11-06T04:13:15.679Z,80.96923828
2022-11-06T04:14:16.325Z,81.17675781
2022-11-06T04:15:17.025Z,81.38427734
2022-11-06T04:16:17.662Z,81.28051758
2022-11-06T04:17:18.297Z,81.17675781
2022-11-06T04:18:18.955Z,80.86547852
2022-11-06T04:19:19.628Z,80.76171875
2022-11-06T04:20:21.041Z,80.51757813
2022-11-06T04:21:21.625Z,80.56030273
2022-11-06T04:22:22.169Z,80.56030273
2022-11-06T04:23:22.782Z,80.65795898
2022-11-06T04:24:23.440Z,80.86547852
2022-11-06T04:25:24.043Z,80.76171875
2022-11-06T04:26:24.628Z,80.76171875
2022-11-06T04:27:25.219Z,80.86547852
2022-11-06T04:28:26.799Z,80.86547852
2022-11-06T04:29:27.418Z,80.65795898
2022-11-06T04:30:29.054Z,80.86547852
2022-11-06T04:31:29.624Z,80.96923828
2022-11-06T04:32:30.230Z,81.28051758
2022-11-06T04:33:30.856Z,81.38427734
2022-11-06T04:34:31.609Z,81.69555664
2022-11-06T04:35:32.288Z,81.59179688
2022-11-06T04:36:32.879Z,81.07299805
2022-11-06T04:37:33.493Z,81.07299805
2022-11-06T04:38:34.088Z,80.86547852
2022-11-06T04:39:35.735Z,81.21337891
2022-11-06T04:41:07.390Z,81.8359375
2022-11-06T04:42:07.964Z,82.28759766
2022-11-06T04:43:08.627Z,82.55615234
2022-11-06T04:44:09.260Z,82.65991211
2022-11-06T04:45:09.858Z,82.25097656
2022-11-06T04:46:10.556Z,81.8359375
2022-11-06T04:47:11.129Z,81.62841797
2022-11-06T04:48:12.170Z,81.28051758
2022-11-06T04:49:12.491Z,80.96923828
2022-11-06T04:50:13.103Z,80.65795898
2022-11-06T04:51:14.324Z,80.24902344
2022-11-06T04:52:14.967Z,79.83398438
2022-11-06T04:53:15.614Z,79.32128906
2022-11-06T04:54:16.213Z,79.01000977
2022-11-06T04:55:16.904Z,78.80249023
2022-11-06T04:56:21.249Z,78.90625
2022-11-06T04:57:18.236Z,78.80249023
2022-11-06T04:58:19.787Z,78.69873047
2022-11-06T04:59:20.921Z,78.80249023
2022-11-06T05:00:22.494Z,78.80249023
2022-11-06T05:01:23.345Z,78.80249023
2022-11-06T05:02:23.811Z,78.80249023
2022-11-06T05:03:24.377Z,78.80249023
2022-11-06T05:04:25.054Z,79.01000977
2022-11-06T05:05:25.740Z,79.01000977
2022-11-06T05:06:29.928Z,79.01000977
2022-11-06T05:07:27.042Z,78.90625
2022-11-06T05:08:27.623Z,78.80249023
2022-11-06T05:09:28.264Z,78.80249023
2022-11-06T05:10:29.512Z,78.80249023
2022-11-06T05:11:30.214Z,78.5949707
2022-11-06T05:12:30.877Z,78.69873047
2022-11-06T05:13:31.500Z,78.69873047
2022-11-06T05:14:32.125Z,78.80249023
2022-11-06T05:15:32.781Z,78.66210938
2022-11-06T05:16:33.590Z,78.45458984
2022-11-06T05:17:36.651Z,78.35083008
2022-11-06T05:19:05.947Z,78.35083008
2022-11-06T05:20:06.569Z,78.28369141
2022-11-06T05:21:07.966Z,78.38745117
2022-11-06T05:22:08.647Z,78.49121094
2022-11-06T05:23:09.315Z,78.17993164
2022-11-06T05:24:09.971Z,78.07617188
2022-11-06T05:25:10.618Z,78.17993164
2022-11-06T05:26:11.452Z,78.21655273
2022-11-06T05:27:12.145Z,78.21655273
2022-11-06T05:28:13.695Z,78.42407227
2022-11-06T05:29:13.986Z,78.21655273
2022-11-06T05:30:14.619Z,78.3203125
2022-11-06T05:31:15.846Z,78.42407227
2022-11-06T05:32:16.535Z,78.6315918
2022-11-06T05:33:17.204Z,78.77197266
2022-11-06T05:34:17.862Z,78.77197266
2022-11-06T05:35:18.522Z,78.97949219
2022-11-06T05:36:19.106Z,78.97949219
2022-11-06T05:37:19.826Z,79.08325195
2022-11-06T05:38:20.886Z,79.18701172
2022-11-06T05:39:21.487Z,78.97949219
2022-11-06T05:40:22.868Z,78.97949219
2022-11-06T05:41:24.339Z,78.97949219
2022-11-06T05:42:25.072Z,78.97949219
2022-11-06T05:43:25.669Z,79.08325195
2022-11-06T05:44:26.336Z,79.08325195
2022-11-06T05:45:26.999Z,78.83911133
2022-11-06T05:46:47.792Z,78.6315918
2022-11-06T05:47:28.237Z,78.42407227
2022-11-06T05:48:28.935Z,78.52783203
2022-11-06T05:49:29.535Z,78.42407227
2022-11-06T05:50:30.202Z,78.21655273
2022-11-06T05:51:31.821Z,78.11279297
2022-11-06T05:52:32.472Z,78.21655273
2022-11-06T05:53:33.078Z,78.3203125
2022-11-06T05:54:33.693Z,77.90527344
2022-11-06T05:56:04.895Z,77.90527344
2022-11-06T05:57:05.502Z,78.0090332
2022-11-06T05:58:07.039Z,77.90527344
2022-11-06T05:59:07.621Z,77.80761719
2022-11-06T06:00:08.256Z,77.49633789
2022-11-06T06:01:09.505Z,77.28881836
2022-11-06T06:02:10.228Z,77.18505859
2022-11-06T06:03:10.860Z,77.28881836
2022-11-06T06:04:11.418Z,77.83813477
2022-11-06T06:05:12.132Z,78.25317383
2022-11-06T06:06:12.760Z,78.56445313
2022-11-06T06:07:13.375Z,78.56445313
2022-11-06T06:08:14.410Z,78.77197266
2022-11-06T06:09:14.694Z,78.87573242
2022-11-06T06:10:16.123Z,78.97949219
2022-11-06T06:11:16.774Z,79.32739258
2022-11-06T06:12:18.021Z,79.39453125
2022-11-06T06:13:18.684Z,79.29077148
2022-11-06T06:14:19.327Z,79.08325195
2022-11-06T06:15:19.993Z,79.08325195
2022-11-06T06:16:20.921Z,79.08325195
2022-11-06T06:17:21.578Z,79.18701172
2022-11-06T06:18:22.285Z,79.18701172
2022-11-06T06:19:22.903Z,79.18701172
2022-11-06T06:20:23.499Z,79.29077148
2022-11-06T06:21:24.864Z,79.29077148
2022-11-06T06:22:25.527Z,79.29077148
2022-11-06T06:23:26.232Z,78.97949219
2022-11-06T06:24:26.845Z,78.97949219
2022-11-06T06:25:28.101Z,79.32739258
2022-11-06T06:26:28.713Z,79.63256836
2022-11-06T06:27:29.398Z,80.04760742
2022-11-06T06:28:30.173Z,80.49926758
2022-11-06T06:29:30.843Z,80.46264648
2022-11-06T06:30:31.414Z,80.15136719
2022-11-06T06:31:32.910Z,80.15136719
2022-11-06T06:32:33.924Z,80.46264648
2022-11-06T06:34:05.129Z,80.77392578
2022-11-06T06:35:05.744Z,80.87768555
2022-11-06T06:36:06.393Z,80.77392578
2022-11-06T06:37:07.084Z,80.35888672
2022-11-06T06:38:07.725Z,80.25512695
2022-11-06T06:39:08.402Z,80.29174805
2022-11-06T06:40:10.014Z,80.39550781
2022-11-06T06:41:11.511Z,80.70678711
2022-11-06T06:42:12.149Z,80.81054688
2022-11-06T06:43:12.792Z,80.81054688
2022-11-06T06:44:13.536Z,80.91430664
2022-11-06T06:45:14.999Z,80.91430664
2022-11-06T06:46:15.586Z,80.56640625
2022-11-06T06:47:16.317Z,80.56640625
2022-11-06T06:48:17.133Z,80.46264648
2022-11-06T06:49:17.680Z,80.35888672
2022-11-06T06:50:18.324Z,80.15136719
2022-11-06T06:51:23.739Z,80.35888672
2022-11-06T06:52:20.173Z,80.11474609
2022-11-06T06:53:21.157Z,80.01098633
2022-11-06T06:54:21.889Z,79.29077148
2022-11-06T06:55:22.485Z,78.97949219
2022-11-06T06:56:23.196Z,78.97949219
2022-11-06T06:57:23.901Z,78.77197266
2022-11-06T06:58:25.889Z,79.08325195
2022-11-06T06:59:26.244Z,79.18701172
2022-11-06T07:00:26.891Z,79.18701172
2022-11-06T07:01:28.133Z,78.97949219
2022-11-06T07:02:28.672Z,78.87573242
2022-11-06T07:03:29.430Z,78.87573242
2022-11-06T07:04:30.146Z,78.87573242
2022-11-06T07:05:30.841Z,78.97949219
2022-11-06T07:06:32.016Z,78.97949219
2022-11-06T07:07:32.773Z,79.45556641
2022-11-06T07:09:04.049Z,79.45556641
2022-11-06T07:10:04.776Z,79.25415039
2022-11-06T07:11:05.351Z,79.15039063
2022-11-06T07:12:06.792Z,78.73535156
2022-11-06T07:13:07.446Z,78.52783203
2022-11-06T07:14:08.081Z,78.42407227
2022-11-06T07:15:08.753Z,78.21655273
2022-11-06T07:16:09.409Z,78.21655273
2022-11-06T07:17:10.038Z,78.21655273
2022-11-06T07:18:10.976Z,78.42407227
2022-11-06T07:19:11.484Z,78.6315918
2022-11-06T07:20:12.160Z,78.6315918
2022-11-06T07:21:12.804Z,78.42407227
2022-11-06T07:22:14.383Z,78.11279297
2022-11-06T07:23:14.952Z,78.21655273
2022-11-06T07:24:15.641Z,78.3203125
2022-11-06T07:25:17.048Z,78.21655273
2022-11-06T07:26:17.698Z,78.21655273
2022-11-06T07:27:18.464Z,78.11279297
2022-11-06T07:28:19.563Z,78.21655273
2022-11-06T07:29:19.794Z,78.52783203
2022-11-06T07:30:20.880Z,78.52783203
2022-11-06T07:31:22.540Z,78.6315918
2022-11-06T07:32:23.227Z,78.73535156
2022-11-06T07:33:23.893Z,78.94287109
2022-11-06T07:34:24.532Z,79.04663086
2022-11-06T07:35:25.255Z,78.6315918
2022-11-06T07:36:25.941Z,78.94287109
2022-11-06T07:37:26.634Z,78.94287109
2022-11-06T07:38:27.247Z,78.73535156
2022-11-06T07:39:27.905Z,78.94287109
2022-11-06T07:40:29.569Z,79.15039063
2022-11-06T07:41:30.988Z,79.04663086
2022-11-06T07:42:31.644Z,78.94287109
2022-11-06T07:43:32.231Z,79.25415039
2022-11-06T07:45:03.606Z,80.59692383
2022-11-06T07:46:04.305Z,82.41577148
2022-11-06T07:47:04.977Z,83.65478516
2022-11-06T07:48:05.701Z,84.06982422
2022-11-06T07:49:06.314Z,84.27734375
2022-11-06T07:50:06.929Z,84.23461914
2022-11-06T07:51:07.637Z,83.82568359
2022-11-06T07:52:08.886Z,81.65893555
2022-11-06T07:53:09.547Z,80.10864258
2022-11-06T07:54:10.192Z,79.38232422
2022-11-06T07:55:11.311Z,78.35083008
2022-11-06T07:56:12.033Z,78.35083008
2022-11-06T07:57:12.698Z,78.55834961
2022-11-06T07:58:13.645Z,78.76586914
2022-11-06T07:59:14.045Z,78.66210938
2022-11-06T08:00:14.735Z,78.45458984
2022-11-06T08:01:18.308Z,78.76586914
2022-11-06T08:02:16.984Z,78.86962891
2022-11-06T08:03:17.605Z,78.86962891
2022-11-06T08:04:18.271Z,78.97338867
2022-11-06T08:05:18.906Z,78.97338867
2022-11-06T08:06:19.588Z,78.86962891
2022-11-06T08:07:20.344Z,78.76586914
2022-11-06T08:08:21.132Z,78.97338867
2022-11-06T08:09:21.720Z,79.1809082
2022-11-06T08:10:22.347Z,79.38232422
2022-11-06T08:11:23.007Z,79.90112305
2022-11-06T08:12:24.489Z,79.79736328
2022-11-06T08:13:25.148Z,79.69360352
2022-11-06T08:14:25.777Z,79.79736328
2022-11-06T08:15:26.363Z,80.21240234
2022-11-06T08:16:27.083Z,80.41992188
2022-11-06T08:17:27.816Z,80.51757813
2022-11-06T08:18:29.298Z,80.62133789
2022-11-06T08:19:29.999Z,80.21240234
2022-11-06T08:20:30.638Z,80.51757813
2022-11-06T08:21:31.288Z,80.62133789
2022-11-06T08:23:03.240Z,79.44946289
2022-11-06T08:24:03.881Z,79.14428711
2022-11-06T08:25:04.580Z,79.24804688
2022-11-06T08:26:05.242Z,79.44946289
2022-11-06T08:27:05.856Z,79.44946289
2022-11-06T08:28:06.500Z,79.76074219
2022-11-06T08:29:07.082Z,79.76074219
2022-11-06T08:30:07.768Z,79.24804688
2022-11-06T08:31:08.356Z,79.04052734
2022-11-06T08:32:09.567Z,79.04052734
2022-11-06T08:33:10.182Z,79.04052734
2022-11-06T08:34:10.798Z,78.72924805
2022-11-06T08:35:11.653Z,78.72924805
2022-11-06T08:36:12.883Z,79.65698242
2022-11-06T08:37:13.565Z,79.55322266
2022-11-06T08:38:15.097Z,79.76074219
2022-11-06T08:39:15.526Z,79.24804688
2022-11-06T08:40:17.036Z,78.48510742
2022-11-06T08:41:17.678Z,78.48510742
2022-11-06T08:42:18.894Z,78.38134766
2022-11-06T08:43:19.520Z,78.07617188
2022-11-06T08:44:20.235Z,77.66113281
2022-11-06T08:45:21.142Z,77.1484375
2022-11-06T08:46:21.828Z,77.04467773
2022-11-06T08:47:22.499Z,77.1484375
2022-11-06T08:48:23.149Z,77.34985352
2022-11-06T08:49:23.758Z,77.04467773
2022-11-06T08:50:24.483Z,77.38647461
2022-11-06T08:51:25.122Z,77.80151367
2022-11-06T08:52:31.224Z,78.11279297
2022-11-06T08:53:27.068Z,78.11279297
2022-11-06T08:54:27.595Z,78.21044922
2022-11-06T08:55:28.277Z,78.21044922
2022-11-06T08:56:28.846Z,78.41796875
2022-11-06T08:57:29.471Z,78.41796875
2022-11-06T08:58:30.049Z,78.38134766
2022-11-06T08:59:31.383Z,77.97241211
2022-11-06T09:01:02.742Z,77.97241211
2022-11-06T09:02:04.191Z,77.76489258
2022-11-06T09:03:04.784Z,77.45361328
2022-11-06T09:04:05.488Z,77.24609375
2022-11-06T09:05:06.143Z,77.45361328
2022-11-06T09:06:06.778Z,77.76489258
2022-11-06T09:07:07.362Z,77.86865234
2022-11-06T09:08:08.057Z,77.97241211
2022-11-06T09:09:08.566Z,77.86865234
2022-11-06T09:10:09.228Z,77.76489258
2022-11-06T09:11:10.511Z,77.76489258
2022-11-06T09:12:11.998Z,77.66113281
2022-11-06T09:13:12.991Z,77.76489258
2022-11-06T09:14:13.337Z,77.86865234
2022-11-06T09:15:14.008Z,77.93579102
2022-11-06T09:16:16.227Z,77.62451172
2022-11-06T09:17:15.395Z,77.52075195
2022-11-06T09:18:16.056Z,77.52075195
2022-11-06T09:19:16.718Z,77.41699219
2022-11-06T09:20:17.418Z,77.41699219
2022-11-06T09:21:18.044Z,77.41699219
2022-11-06T09:22:19.537Z,77.52075195
2022-11-06T09:23:20.154Z,77.52075195
2022-11-06T09:24:37.282Z,77.31323242
2022-11-06T09:25:21.618Z,77.41699219
2022-11-06T09:26:22.347Z,77.48413086
2022-11-06T09:27:23.052Z,77.93579102
2022-11-06T09:28:23.727Z,78.00292969
2022-11-06T09:29:24.314Z,77.79541016
2022-11-06T09:30:25.000Z,77.79541016
2022-11-06T09:31:25.645Z,77.89916992
2022-11-06T09:32:27.008Z,77.58789063
2022-11-06T09:33:27.605Z,77.69165039
2022-11-06T09:34:28.157Z,77.79541016
2022-11-06T09:35:29.536Z,77.58789063
2022-11-06T09:36:30.239Z,77.48413086
2022-11-06T09:37:30.928Z,77.6550293
2022-11-06T09:39:02.354Z,77.55126953
2022-11-06T09:40:06.334Z,78.07006836
2022-11-06T09:41:03.668Z,78.07006836
2022-11-06T09:42:04.348Z,77.96630859
2022-11-06T09:43:05.827Z,77.75878906
2022-11-06T09:44:06.656Z,77.75878906
2022-11-06T09:45:07.013Z,77.86254883
2022-11-06T09:46:07.640Z,77.75878906
2022-11-06T09:47:08.337Z,77.6184082
2022-11-06T09:48:09.038Z,77.6184082
2022-11-06T09:49:09.779Z,77.6184082
2022-11-06T09:50:10.347Z,77.51464844
2022-11-06T09:51:10.915Z,77.31323242
2022-11-06T09:52:11.624Z,77.10571289
2022-11-06T09:53:12.881Z,77.24609375
2022-11-06T09:54:13.450Z,77.55126953
2022-11-06T09:55:14.107Z,77.6550293
2022-11-06T09:56:15.289Z,77.6550293
2022-11-06T09:57:15.892Z,77.45361328
2022-11-06T09:58:16.789Z,77.55126953
2022-11-06T09:59:17.224Z,77.6550293
2022-11-06T10:00:17.771Z,77.6550293
2022-11-06T10:01:24.485Z,77.75878906
2022-11-06T10:02:20.694Z,77.75878906
2022-11-06T10:03:21.139Z,77.45361328
2022-11-06T10:04:21.827Z,77.34985352
2022-11-06T10:05:22.315Z,77.34985352
2022-11-06T10:06:22.897Z,77.14233398
2022-11-06T10:07:23.433Z,77.24609375
2022-11-06T10:08:24.157Z,77.31323242
2022-11-06T10:09:24.787Z,77.31323242
2022-11-06T10:10:25.353Z,77.20947266
2022-11-06T10:11:25.978Z,77.20947266
2022-11-06T10:12:27.494Z,77.10571289
2022-11-06T10:13:28.176Z,76.69677734
2022-11-06T10:14:28.762Z,76.59301758
2022-11-06T10:15:29.390Z,76.59301758
2022-11-06T10:16:30.000Z,76.59301758
2022-11-06T10:17:30.562Z,76.69677734
2022-11-06T10:19:01.707Z,76.69677734
2022-11-06T10:20:02.462Z,77.00195313
2022-11-06T10:21:03.026Z,77.00195313
2022-11-06T10:22:03.701Z,76.89819336
2022-11-06T10:23:05.268Z,77.00195313
2022-11-06T10:24:05.982Z,76.79443359
2022-11-06T10:25:06.664Z,76.48925781
2022-11-06T10:26:07.280Z,76.48925781
2022-11-06T10:27:07.880Z,76.59301758
2022-11-06T10:28:08.434Z,76.79443359
2022-11-06T10:29:09.041Z,76.89819336
2022-11-06T10:30:10.329Z,77.10571289
2022-11-06T10:31:10.836Z,77.31323242
2022-11-06T10:32:11.396Z,76.89819336
2022-11-06T10:33:12.763Z,76.89819336
2022-11-06T10:34:13.386Z,77.00195313
2022-11-06T10:35:13.982Z,77.20947266
2022-11-06T10:36:14.624Z,77.48413086
2022-11-06T10:37:15.175Z,77.89306641
2022-11-06T10:38:16.057Z,78.2043457
2022-11-06T10:39:16.221Z,78.40576172
2022-11-06T10:40:16.843Z,78.50952148
2022-11-06T10:41:17.989Z,78.30200195
2022-11-06T10:42:18.590Z,77.48413086
2022-11-06T10:43:19.727Z,77.17285156
2022-11-06T10:44:20.276Z,77.17285156
2022-11-06T10:45:21.152Z,77.17285156
2022-11-06T10:46:21.714Z,77.17285156
2022-11-06T10:47:22.345Z,77.17285156
2022-11-06T10:48:27.399Z,77.0690918
2022-11-06T10:49:23.467Z,76.96533203
2022-11-06T10:50:24.008Z,77.0690918
2022-11-06T10:51:24.644Z,77.27661133
2022-11-06T10:52:25.214Z,77.27661133
2022-11-06T10:53:26.853Z,76.96533203
2022-11-06T10:54:27.418Z,76.96533203
2022-11-06T10:55:27.949Z,76.96533203
2022-11-06T10:56:28.516Z,76.92871094
2022-11-06T10:57:29.096Z,76.92871094
2022-11-06T10:58:29.709Z,76.92871094
2022-11-06T10:59:30.756Z,77.0324707
2022-11-06T11:01:01.687Z,76.92871094
2022-11-06T11:02:03.279Z,77.13623047
2022-11-06T11:03:03.517Z,77.13623047
2022-11-06T11:04:04.063Z,77.13623047
2022-11-06T11:05:04.597Z,77.23999023
2022-11-06T11:06:05.171Z,77.44750977